Time;durP1;ratioP1;P1;durP2;ratioP2;P2;SDS_P1;SDS_P2;PMS_P1;PMS_P2;Temp;Humidity;BMP_temperature;BMP_pressure;BME280_temperature;BME280_humidity;BME280_pressure;Samples;Min_cycle;Max_cycle;Signal;HPM_P1;HPM_P2
2023/09/27 00:00:29;;;;;;;14.57;8.07;;;;;;;16.66;100.00;101861.22;5071916;28;20040;-66
2023/09/27 00:03:17;;;;;;;14.45;8.18;;;;;;;16.65;100.00;101864.28;5072099;28;20110;-65
2023/09/27 00:06:05;;;;;;;11.63;8.30;;;;;;;16.62;100.00;101865.66;5071030;28;20055;-66
2023/09/27 00:08:53;;;;;;;12.23;8.27;;;;;;;16.60;100.00;101874.19;5070463;28;20316;-66
2023/09/27 00:11:41;;;;;;;12.00;8.00;;;;;;;16.59;100.00;101878.03;5053052;28;20132;-66
2023/09/27 00:14:29;;;;;;;11.68;7.60;;;;;;;16.58;100.00;101879.16;5075716;28;20047;-65
2023/09/27 00:17:17;;;;;;;11.48;7.10;;;;;;;16.58;100.00;101881.91;5078352;28;20125;-66
2023/09/27 00:20:09;;;;;;;12.00;7.20;;;;;;;16.59;100.00;101883.53;5071058;28;20051;-66
2023/09/27 00:22:57;;;;;;;14.00;7.97;;;;;;;16.60;100.00;101885.19;5073448;28;20048;-66
2023/09/27 00:25:45;;;;;;;12.55;7.38;;;;;;;16.60;100.00;101889.88;5071224;28;20058;-66
2023/09/27 00:28:33;;;;;;;13.18;7.47;;;;;;;16.56;100.00;101886.84;5072104;28;20056;-66
2023/09/27 00:31:21;;;;;;;11.20;7.38;;;;;;;16.56;100.00;101889.59;5070287;28;20532;-66
2023/09/27 00:34:09;;;;;;;12.45;7.72;;;;;;;16.56;100.00;101888.78;5082122;28;20576;-66
2023/09/27 00:36:57;;;;;;;12.70;8.15;;;;;;;16.58;100.00;101881.91;5075839;28;20084;-66
2023/09/27 00:39:45;;;;;;;10.98;7.78;;;;;;;16.53;100.00;101876.41;5051551;28;20045;-66
2023/09/27 00:42:33;;;;;;;15.48;8.25;;;;;;;16.48;100.00;101870.94;5062870;28;20115;-66
2023/09/27 00:45:22;;;;;;;11.85;7.28;;;;;;;16.47;100.00;101880.28;5070487;28;20134;-66
2023/09/27 00:48:10;;;;;;;13.93;7.85;;;;;;;16.46;100.00;101881.41;5069230;28;20048;-65
2023/09/27 00:50:58;;;;;;;11.77;7.72;;;;;;;16.45;100.00;101879.78;5041919;28;20071;-66
2023/09/27 00:53:46;;;;;;;11.32;8.13;;;;;;;16.44;100.00;101880.88;5072712;28;20487;-65
2023/09/27 00:56:35;;;;;;;13.50;8.15;;;;;;;16.44;100.00;101885.53;5063985;28;20048;-66
2023/09/27 00:59:24;;;;;;;15.23;8.90;;;;;;;16.40;100.00;101875.13;5079851;28;20056;-66
2023/09/27 01:02:12;;;;;;;11.43;7.53;;;;;;;16.36;100.00;101863.03;5056123;28;20119;-66
2023/09/27 01:05:00;;;;;;;12.85;7.70;;;;;;;16.36;100.00;101863.03;5062320;28;20109;-65
2023/09/27 01:07:48;;;;;;;13.18;7.63;;;;;;;16.35;100.00;101866.84;5047986;28;20056;-66
2023/09/27 01:10:36;;;;;;;12.43;7.63;;;;;;;16.36;100.00;101865.78;5062092;28;20048;-66
2023/09/27 01:13:25;;;;;;;13.90;7.75;;;;;;;16.35;100.00;101871.53;5080173;28;20043;-65
2023/09/27 01:16:13;;;;;;;13.02;7.80;;;;;;;16.32;100.00;101872.13;5096049;28;20044;-66
2023/09/27 01:19:02;;;;;;;13.85;7.70;;;;;;;16.26;100.00;101863.06;5082267;28;20453;-65
2023/09/27 01:21:50;;;;;;;12.18;8.02;;;;;;;16.24;100.00;101870.78;5074563;28;20135;-65
2023/09/27 01:24:38;;;;;;;14.55;7.75;;;;;;;16.23;100.00;101873.78;5060761;28;20048;-66
2023/09/27 01:27:26;;;;;;;15.27;8.02;;;;;;;16.24;100.00;101864.47;5075955;28;20098;-65
2023/09/27 01:30:14;;;;;;;11.57;7.82;;;;;;;16.21;100.00;101857.59;5047482;28;20048;-66
2023/09/27 01:33:08;;;;;;;13.25;7.90;;;;;;;16.18;100.00;101855.38;5074826;28;20127;-66
2023/09/27 01:35:57;;;;;;;13.85;8.10;;;;;;;16.16;100.00;101849.34;5061150;28;20058;-66
2023/09/27 01:38:45;;;;;;;12.15;7.75;;;;;;;16.15;100.00;101839.44;5060915;28;20055;-66
2023/09/27 01:41:33;;;;;;;13.10;7.28;;;;;;;16.10;100.00;101832.03;5059717;28;20547;-65
2023/09/27 01:44:21;;;;;;;12.40;7.22;;;;;;;16.10;100.00;101826.53;5061715;28;20044;-65
2023/09/27 01:47:09;;;;;;;16.85;8.23;;;;;;;16.12;100.00;101818.84;5048423;28;20048;-65
2023/09/27 01:49:57;;;;;;;12.25;7.30;;;;;;;16.09;100.00;101819.41;5051368;28;20520;-68
2023/09/27 01:52:46;;;;;;;11.05;7.78;;;;;;;16.08;100.00;101820.50;5058812;28;20467;-65
2023/09/27 01:55:35;;;;;;;13.82;7.80;;;;;;;16.08;100.00;101833.44;5061098;28;20535;-66
2023/09/27 01:58:23;;;;;;;12.10;8.02;;;;;;;16.08;100.00;101833.44;5059083;28;20056;-65
2023/09/27 02:01:11;;;;;;;12.95;7.70;;;;;;;16.07;100.00;101837.28;5046630;28;20053;-65
2023/09/27 02:03:59;;;;;;;10.65;7.10;;;;;;;16.09;100.00;101841.41;5074117;28;20063;-66
2023/09/27 02:06:47;;;;;;;11.88;7.70;;;;;;;16.11;100.00;101839.19;5072463;28;20131;-65
2023/09/27 02:09:35;;;;;;;11.82;7.38;;;;;;;16.09;100.00;101841.41;5070007;28;20053;-66
2023/09/27 02:12:23;;;;;;;11.23;7.15;;;;;;;16.08;100.00;101828.75;5060172;28;20044;-65
2023/09/27 02:15:13;;;;;;;13.82;7.53;;;;;;;16.04;100.00;101830.41;5059452;28;20125;-65
2023/09/27 02:18:01;;;;;;;11.48;7.60;;;;;;;16.00;100.00;101826.59;5058081;28;20087;-66
2023/09/27 02:20:49;;;;;;;11.98;7.32;;;;;;;15.99;100.00;101835.91;5061955;28;20064;-66
2023/09/27 02:23:37;;;;;;;13.32;7.53;;;;;;;15.96;100.00;101836.50;5068975;28;20072;-66
2023/09/27 02:26:25;;;;;;;14.43;7.70;;;;;;;15.89;100.00;101831.28;5075335;28;20044;-66
2023/09/27 02:29:13;;;;;;;10.57;7.32;;;;;;;15.87;100.00;101835.41;5074462;28;20041;-66
2023/09/27 02:32:01;;;;;;;10.93;7.25;;;;;;;15.84;100.00;101844.22;5050512;28;20044;-67
2023/09/27 02:34:50;;;;;;;13.15;7.32;;;;;;;15.84;100.00;101839.53;5073830;28;20063;-67
2023/09/27 02:37:39;;;;;;;10.52;7.03;;;;;;;15.82;100.00;101830.75;5073141;28;20040;-65
2023/09/27 02:40:27;;;;;;;12.23;7.45;;;;;;;15.79;100.00;101831.31;5047997;28;20131;-65
2023/09/27 02:43:15;;;;;;;10.05;6.60;;;;;;;15.75;100.00;101836.56;5084102;28;20100;-65
2023/09/27 02:46:03;;;;;;;10.43;6.68;;;;;;;15.78;100.00;101832.44;5084770;28;20097;-66
2023/09/27 02:48:52;;;;;;;13.43;7.38;;;;;;;15.82;100.00;101836.25;5083958;28;20047;-66
2023/09/27 02:51:40;;;;;;;15.48;7.65;;;;;;;15.82;100.00;101830.75;5058041;28;20071;-65
2023/09/27 02:54:28;;;;;;;10.60;6.72;;;;;;;15.80;100.00;101843.13;5060013;28;20094;-65
2023/09/27 02:57:16;;;;;;;11.95;6.60;;;;;;;15.81;100.00;101844.78;5059561;28;20416;-65
2023/09/27 03:00:06;;;;;;;9.68;6.22;;;;;;;15.86;100.00;101836.53;5057881;28;20087;-65
2023/09/27 03:02:56;;;;;;;10.20;6.57;;;;;;;15.90;100.00;101835.69;5041614;28;20045;-66
2023/09/27 03:05:44;;;;;;;10.75;6.35;;;;;;;15.92;100.00;101835.38;5038805;28;20041;-65
2023/09/27 03:08:32;;;;;;;9.82;6.88;;;;;;;15.90;100.00;101835.69;5058884;28;20091;-66
2023/09/27 03:11:20;;;;;;;17.30;6.68;;;;;;;15.89;100.00;101830.47;5035159;28;20050;-65
2023/09/27 03:14:08;;;;;;;11.45;6.07;;;;;;;15.90;100.00;101838.44;5033570;28;20045;-66
2023/09/27 03:16:56;;;;;;;9.98;6.18;;;;;;;15.89;100.00;101836.78;5072907;28;20071;-67
2023/09/27 03:19:47;;;;;;;10.48;5.88;;;;;;;15.87;100.00;101832.66;5058071;28;20128;-65
2023/09/27 03:22:36;;;;;;;12.45;6.72;;;;;;;15.82;100.00;101824.44;5073821;28;20416;-65
2023/09/27 03:25:24;;;;;;;12.75;6.97;;;;;;;15.82;100.00;101824.44;5057803;28;20439;-65
2023/09/27 03:28:12;;;;;;;12.45;6.70;;;;;;;15.78;100.00;101832.44;5045178;28;20052;-66
2023/09/27 03:31:01;;;;;;;11.73;6.65;;;;;;;15.76;100.00;101831.88;5066649;28;20059;-65
2023/09/27 03:33:49;;;;;;;10.30;6.65;;;;;;;15.74;100.00;101834.88;5058910;28;20052;-66
2023/09/27 03:36:38;;;;;;;12.73;6.82;;;;;;;15.73;100.00;101838.75;5057702;28;20044;-65
2023/09/27 03:39:28;;;;;;;11.77;7.22;;;;;;;15.73;100.00;101840.69;5073615;28;20037;-66
2023/09/27 03:42:20;;;;;;;10.98;7.03;;;;;;;15.69;100.00;101867.84;5057839;28;20051;-66
2023/09/27 03:45:08;;;;;;;10.70;6.72;;;;;;;15.67;100.00;101861.81;5058330;28;20033;-65
2023/09/27 03:47:58;;;;;;;13.35;7.20;;;;;;;15.67;100.00;101861.81;5044507;28;20135;-64
2023/09/27 03:50:46;;;;;;;11.65;6.72;;;;;;;15.62;100.00;101870.06;5070422;28;20048;-65
2023/09/27 03:53:35;;;;;;;10.30;6.88;;;;;;;15.58;100.00;101863.44;5055020;28;20114;-65
2023/09/27 03:56:23;;;;;;;10.57;7.00;;;;;;;15.55;100.00;101864.84;5072365;28;20044;-65
2023/09/27 03:59:13;;;;;;;11.15;6.55;;;;;;;15.54;100.00;101868.69;5046836;28;20052;-66
2023/09/27 04:02:01;;;;;;;12.75;6.97;;;;;;;15.55;100.00;101861.25;5067419;28;20059;-66
2023/09/27 04:04:49;;;;;;;10.88;7.13;;;;;;;15.53;100.00;101863.47;5056841;28;20052;-66
2023/09/27 04:07:39;;;;;;;12.35;7.00;;;;;;;15.45;100.00;101864.03;5039018;28;20177;-66
2023/09/27 04:10:28;;;;;;;10.35;7.13;;;;;;;15.33;100.00;101873.34;5054359;28;20073;-66
2023/09/27 04:13:16;;;;;;;10.82;7.30;;;;;;;15.29;100.00;101872.25;5055336;28;20055;-66
2023/09/27 04:16:04;;;;;;;10.45;6.78;;;;;;;15.29;100.00;101877.75;5056030;28;20053;-66
2023/09/27 04:18:52;;;;;;;12.82;7.45;;;;;;;15.28;100.00;101878.84;5068785;28;20049;-66
2023/09/27 04:21:40;;;;;;;12.27;6.97;;;;;;;15.28;100.00;101886.28;5090646;28;20524;-65
2023/09/27 04:24:28;;;;;;;13.18;7.25;;;;;;;15.32;100.00;101879.97;5091448;28;20052;-66
2023/09/27 04:27:18;;;;;;;12.68;7.50;;;;;;;15.38;100.00;101869.78;5060317;28;20121;-66
2023/09/27 04:30:11;;;;;;;10.60;6.53;;;;;;;15.40;100.00;101861.28;5056490;28;20044;-66
2023/09/27 04:33:00;;;;;;;11.68;6.93;;;;;;;15.40;100.00;101861.28;5072009;28;20126;-66
2023/09/27 04:35:48;;;;;;;10.50;6.65;;;;;;;15.38;100.00;101874.47;5072283;28;20044;-65
2023/09/27 04:38:36;;;;;;;10.27;6.78;;;;;;;15.36;100.00;101874.72;5056672;28;20505;-65
2023/09/27 04:41:24;;;;;;;9.65;6.25;;;;;;;15.40;100.00;101888.75;5078828;28;20055;-65
2023/09/27 04:44:15;;;;;;;13.18;7.30;;;;;;;15.44;100.00;101882.44;5071537;28;20037;-65
2023/09/27 04:47:03;;;;;;;10.82;7.35;;;;;;;15.48;100.00;101891.75;5072302;28;20053;-65
2023/09/27 04:49:51;;;;;;;10.48;6.55;;;;;;;15.50;100.00;101894.22;5088671;28;20052;-66
2023/09/27 04:52:39;;;;;;;10.02;6.43;;;;;;;15.51;100.00;101906.84;5092042;28;20131;-66
2023/09/27 04:55:28;;;;;;;10.02;6.43;;;;;;;15.52;100.00;101908.53;5078264;28;20044;-66
2023/09/27 04:58:16;;;;;;;11.23;6.90;;;;;;;15.52;100.00;101897.53;5069654;28;20502;-66
2023/09/27 05:01:04;;;;;;;13.68;7.38;;;;;;;15.51;100.00;101862.91;5017304;28;20076;-67
2023/09/27 05:03:52;;;;;;;11.38;7.05;;;;;;;15.43;100.00;101849.75;5030652;28;20049;-66
2023/09/27 05:06:40;;;;;;;11.38;6.97;;;;;;;15.33;100.00;101872.53;5030128;28;20245;-66
2023/09/27 05:09:28;;;;;;;11.18;6.88;;;;;;;15.24;100.00;101891.47;5057941;28;21136;-65
2023/09/27 05:12:16;;;;;;;9.30;6.60;;;;;;;15.27;100.00;101882.72;5071518;28;20385;-65
2023/09/27 05:15:06;;;;;;;12.27;7.00;;;;;;;15.23;100.00;101875.28;5042649;28;20079;-65
2023/09/27 05:17:54;;;;;;;12.55;7.32;;;;;;;15.18;100.00;101870.63;5065930;28;20070;-65
2023/09/27 05:20:43;;;;;;;11.90;7.45;;;;;;;15.17;100.00;101873.63;5057971;28;20129;-66
2023/09/27 05:23:32;;;;;;;11.00;7.15;;;;;;;15.13;100.00;101873.34;5041314;28;20048;-67
2023/09/27 05:26:20;;;;;;;14.80;7.25;;;;;;;15.12;100.00;101882.66;5040627;28;20056;-66
2023/09/27 05:29:14;;;;;;;10.55;7.10;;;;;;;15.16;100.00;101870.06;5078857;28;20492;-66
2023/09/27 05:32:02;;;;;;;14.00;7.78;;;;;;;15.16;100.00;101867.31;5052230;28;20051;-66
2023/09/27 05:34:51;;;;;;;14.63;7.43;;;;;;;15.14;100.00;101869.50;5065684;28;20063;-65
2023/09/27 05:37:39;;;;;;;13.93;8.13;;;;;;;15.15;100.00;101860.16;4351548;28;10000547;-65
2023/09/27 05:40:27;;;;;;;18.73;8.63;;;;;;;15.10;100.00;101857.41;5048866;28;20049;-66
2023/09/27 05:43:16;;;;;;;13.18;7.97;;;;;;;15.06;100.00;101859.06;5061083;28;20174;-66
2023/09/27 05:46:04;;;;;;;14.30;7.72;;;;;;;15.01;100.00;101859.88;5067508;28;20049;-67
2023/09/27 05:48:51;;;;;;;15.00;7.68;;;;;;;15.00;100.00;101874.69;5081008;28;20087;-66
2023/09/27 05:51:40;;;;;;;18.58;7.72;;;;;;;15.00;100.00;101871.94;5074791;28;20048;-66
2023/09/27 05:54:29;;;;;;;13.35;7.70;;;;;;;14.99;100.00;101861.25;5065322;28;20705;-65
2023/09/27 05:57:17;;;;;;;18.35;8.27;;;;;;;14.96;100.00;101853.56;5048011;28;20044;-65
2023/09/27 06:00:15;;;;;;;12.30;7.28;;;;;;;14.98;100.00;101843.94;5056192;28;20099;-67
2023/09/27 06:03:05;;;;;;;13.23;7.55;;;;;;;15.04;100.00;101842.88;5050760;28;20048;-65
2023/09/27 06:05:54;;;;;;;11.55;7.65;;;;;;;15.08;100.00;101841.25;5062075;28;20365;-66
2023/09/27 06:08:42;;;;;;;13.68;7.63;;;;;;;15.07;100.00;101839.56;5041368;28;20583;-64
2023/09/27 06:11:30;;;;;;;11.90;7.80;;;;;;;15.05;100.00;101846.44;5056526;28;20700;-64
2023/09/27 06:14:18;;;;;;;17.73;7.75;;;;;;;15.04;100.00;101847.53;5051908;28;20186;-65
2023/09/27 06:17:06;;;;;;;13.65;8.25;;;;;;;15.02;100.00;101849.72;5071403;28;20046;-65
2023/09/27 06:19:55;;;;;;;15.77;7.95;;;;;;;15.02;100.00;101850.53;5054847;28;20111;-65
2023/09/27 06:22:45;;;;;;;15.48;8.70;;;;;;;15.03;100.00;101843.13;5053649;28;20056;-64
2023/09/27 06:25:35;;;;;;;14.93;8.50;;;;;;;15.07;100.00;101841.50;5068646;28;20059;-65
2023/09/27 06:28:23;;;;;;;14.00;8.80;;;;;;;15.08;100.00;101848.63;5056905;28;20051;-65
2023/09/27 06:31:13;;;;;;;15.35;9.25;;;;;;;15.10;100.00;101854.66;5070790;28;20060;-65
2023/09/27 06:34:01;;;;;;;13.43;9.15;;;;;;;15.15;100.00;101851.91;5069852;28;20059;-65
2023/09/27 06:36:51;;;;;;;16.40;8.90;;;;;;;15.19;100.00;101838.50;5029970;28;20052;-65
2023/09/27 06:39:39;;;;;;;13.45;8.23;;;;;;;15.21;100.00;101844.53;5069300;28;20121;-64
2023/09/27 06:42:28;;;;;;;12.55;8.32;;;;;;;15.25;100.00;101843.72;5069551;28;20135;-65
2023/09/27 06:45:16;;;;;;;13.43;8.13;;;;;;;15.29;100.00;101828.31;5033472;28;20220;-65
2023/09/27 06:48:05;;;;;;;13.40;8.32;;;;;;;15.34;100.00;101836.56;5054487;28;20079;-65
2023/09/27 06:50:53;;;;;;;13.75;8.10;;;;;;;15.40;100.00;101844.81;5064155;28;20052;-65
2023/09/27 06:53:43;;;;;;;12.80;8.15;;;;;;;15.45;100.00;101847.56;5037932;28;20056;-65
2023/09/27 06:56:31;;;;;;;16.17;8.70;;;;;;;15.47;100.00;101856.34;5054827;28;20059;-64
2023/09/27 06:59:19;;;;;;;15.80;8.65;;;;;;;15.49;100.00;101859.59;5041462;28;20064;-64
2023/09/27 07:02:08;;;;;;;16.92;9.48;;;;;;;15.52;100.00;101861.81;5054163;28;20131;-65
2023/09/27 07:04:56;;;;;;;15.90;9.18;;;;;;;15.52;100.00;101864.56;5038702;28;20056;-66
2023/09/27 07:07:44;;;;;;;12.77;7.45;;;;;;;15.55;100.00;101858.53;5057888;28;20047;-66
2023/09/27 07:10:33;;;;;;;19.23;8.07;;;;;;;15.58;100.00;101852.47;5060722;28;20044;-65
2023/09/27 07:13:21;;;;;;;15.02;8.65;;;;;;;15.61;100.00;101845.59;5058202;28;20465;-67
2023/09/27 07:16:29;;;;;;;13.48;8.48;;;;;;;15.63;100.00;101855.19;5072379;28;20407;-65
2023/09/27 07:19:18;;;;;;;15.52;8.05;;;;;;;15.64;100.00;101854.13;5053068;28;20147;-66
2023/09/27 07:22:08;;;;;;;14.40;9.20;;;;;;;15.65;100.00;101868.69;5054866;28;20049;-65
2023/09/27 07:24:56;;;;;;;13.27;8.02;;;;;;;15.65;100.00;101874.16;5092811;28;20051;-64
2023/09/27 07:27:46;;;;;;;15.38;8.57;;;;;;;15.63;100.00;101873.63;5082829;28;20051;-66
2023/09/27 07:30:34;;;;;;;13.65;8.27;;;;;;;15.64;100.00;101878.03;5072957;28;20070;-65
2023/09/27 07:33:22;;;;;;;12.82;8.57;;;;;;;15.64;100.00;101872.53;5041113;28;20036;-65
2023/09/27 07:36:11;;;;;;;16.33;8.65;;;;;;;15.66;100.00;101884.91;5092687;28;20094;-65
2023/09/27 07:39:03;;;;;;;12.57;8.40;;;;;;;15.67;100.00;101880.22;5047602;28;20484;-65
2023/09/27 07:41:52;;;;;;;16.15;8.10;;;;;;;15.69;100.00;101864.28;5072208;28;20045;-66
2023/09/27 07:44:40;;;;;;;14.30;8.88;;;;;;;15.71;100.00;101851.94;5073556;28;20114;-66
2023/09/27 07:47:29;;;;;;;17.08;9.10;;;;;;;15.73;100.00;101855.25;5072941;28;20048;-66
2023/09/27 07:50:19;;;;;;;14.63;8.88;;;;;;;15.74;100.00;101856.88;5057601;28;20052;-67
2023/09/27 07:53:11;;;;;;;12.95;8.48;;;;;;;15.74;100.00;101851.38;5058819;28;20059;-66
2023/09/27 07:56:00;;;;;;;12.18;8.20;;;;;;;15.75;100.00;101839.31;5058463;28;20052;-66
2023/09/27 07:58:52;;;;;;;15.07;9.38;;;;;;;15.76;100.00;101849.19;5087056;28;20049;-66
2023/09/27 08:01:41;;;;;;;11.15;8.30;;;;;;;15.77;100.00;101850.81;5059053;28;20455;-66
2023/09/27 08:04:29;;;;;;;12.20;8.90;;;;;;;15.80;100.00;101856.88;5072320;28;20040;-67
2023/09/27 08:07:18;;;;;;;12.57;8.50;;;;;;;15.83;100.00;101861.81;5057532;28;20075;-66
2023/09/27 08:10:08;;;;;;;17.15;9.13;;;;;;;15.84;100.00;101867.03;5058319;28;20210;-66
2023/09/27 08:13:15;;;;;;;17.08;8.63;;;;;;;15.87;100.00;101857.41;5085567;28;20118;-67
2023/09/27 08:16:06;;;;;;;13.70;8.90;;;;;;;15.88;100.00;101848.88;5085501;28;20044;-66
2023/09/27 08:18:54;;;;;;;16.30;9.50;;;;;;;15.90;100.00;101862.34;5072959;28;20063;-66
2023/09/27 08:21:42;;;;;;;13.10;8.32;;;;;;;15.93;100.00;101857.13;5093373;28;20048;-66
2023/09/27 08:24:30;;;;;;;16.17;9.43;;;;;;;15.97;100.00;101863.72;5077952;28;20047;-66
2023/09/27 08:27:18;;;;;;;12.43;8.75;;;;;;;16.01;100.00;101869.47;5062444;28;20070;-66
2023/09/27 08:30:07;;;;;;;15.75;9.52;;;;;;;16.04;100.00;101877.13;5059173;28;20130;-66
2023/09/27 08:32:55;;;;;;;14.82;9.40;;;;;;;16.07;100.00;101884.84;5057500;28;20037;-66
2023/09/27 08:35:43;;;;;;;13.57;8.90;;;;;;;16.10;100.00;101897.22;5056960;28;20084;-67
2023/09/27 08:38:31;;;;;;;14.32;9.77;;;;;;;16.14;100.00;101901.88;5070451;28;20040;-67
2023/09/27 08:41:23;;;;;;;14.23;9.15;;;;;;;16.17;100.00;101895.81;5072182;28;20051;-67
2023/09/27 08:44:14;;;;;;;15.68;9.55;;;;;;;16.22;100.00;101900.47;5073931;28;20047;-67
2023/09/27 08:47:03;;;;;;;13.15;9.65;;;;;;;16.26;100.00;101900.72;5063255;28;20129;-66
2023/09/27 08:49:51;;;;;;;15.93;9.05;;;;;;;16.31;100.00;101912.56;5080305;28;20408;-67
2023/09/27 08:52:40;;;;;;;14.82;9.05;;;;;;;16.37;100.00;101914.16;5031734;28;20049;-66
2023/09/27 08:55:28;;;;;;;14.73;8.75;;;;;;;16.42;100.00;101905.06;5058019;28;20037;-67
2023/09/27 08:58:16;;;;;;;14.15;8.93;;;;;;;16.46;100.00;101902.59;5071067;28;20057;-67
2023/09/27 09:01:08;;;;;;;15.82;9.55;;;;;;;16.45;100.00;101888.03;5057059;28;20507;-66
2023/09/27 09:03:56;;;;;;;15.18;9.57;;;;;;;16.50;100.00;101890.75;5050875;28;20138;-67
2023/09/27 09:06:45;;;;;;;17.77;10.48;;;;;;;16.56;100.00;101878.59;5051569;28;20052;-66
2023/09/27 09:09:34;;;;;;;14.13;9.50;;;;;;;16.65;100.00;101880.78;5059440;28;20123;-67
2023/09/27 09:12:22;;;;;;;16.27;10.18;;;;;;;16.73;100.00;101882.94;5070600;28;20053;-67
2023/09/27 09:15:15;;;;;;;14.15;9.20;;;;;;;16.80;100.00;101883.47;5072552;28;20045;-66
2023/09/27 09:18:06;;;;;;;18.08;9.32;;;;;;;16.85;100.00;101886.19;5072224;28;20063;-67
2023/09/27 09:20:58;;;;;;;14.27;8.90;;;;;;;16.90;100.00;101877.09;5033813;28;20131;-66
2023/09/27 09:23:48;;;;;;;15.25;9.70;;;;;;;16.97;100.00;101872.09;5057700;28;20036;-65
2023/09/27 09:26:37;;;;;;;14.63;9.20;;;;;;;17.08;100.00;101867.31;5061231;28;20048;-67
2023/09/27 09:29:25;;;;;;;17.77;10.10;;;;;;;17.13;100.00;101865.38;5076682;28;20044;-67
2023/09/27 09:32:31;;;;;;;16.92;10.15;;;;;;;17.17;100.00;101860.94;5096208;28;20055;-67
2023/09/27 09:35:32;;;;;;;21.90;10.25;;;;;;;17.20;100.00;101865.03;5055710;28;20040;-67
2023/09/27 09:38:25;;;;;;;12.93;8.13;;;;;;;17.20;100.00;101854.03;5072770;28;20040;-66
2023/09/27 09:41:13;;;;;;;14.10;8.63;;;;;;;17.20;100.00;101854.84;5061007;28;20076;-66
2023/09/27 09:44:23;;;;;;;12.93;8.63;;;;;;;17.22;100.00;101852.63;5074072;28;20573;-66
2023/09/27 09:47:12;;;;;;;19.35;9.10;;;;;;;17.27;100.00;101840.75;5061963;28;20593;-68
2023/09/27 09:50:00;;;;;;;15.88;8.82;;;;;;;17.32;100.00;101848.97;5060689;28;20040;-66
2023/09/27 09:52:57;;;;;;;14.82;9.48;;;;;;;17.33;100.00;101847.84;5047660;28;20051;-67
2023/09/27 09:55:49;;;;;;;15.30;8.43;;;;;;;17.34;100.00;101835.72;5073970;28;20438;-65
2023/09/27 09:58:42;;;;;;;15.57;10.13;;;;;;;17.38;100.00;101834.03;5060971;28;20056;-66
2023/09/27 10:01:36;;;;;;;13.60;9.80;;;;;;;17.49;100.00;101833.94;5054045;28;20056;-67
2023/09/27 10:04:26;;;;;;;15.18;10.00;;;;;;;17.59;100.00;101822.81;5042000;28;20072;-67
2023/09/27 10:07:17;;;;;;;15.52;8.73;;;;;;;17.65;100.00;101810.63;5039555;28;20405;-66
2023/09/27 10:10:06;;;;;;;13.35;8.57;;;;;;;17.71;100.00;101803.94;5071674;28;20157;-66
2023/09/27 10:12:54;;;;;;;18.30;8.90;;;;;;;17.80;100.00;101806.91;5074317;28;20082;-66
2023/09/27 10:15:42;;;;;;;12.30;7.68;;;;;;;17.85;100.00;101807.69;5060567;28;20439;-66
2023/09/27 10:18:36;;;;;;;15.02;8.82;;;;;;;17.85;100.00;101793.91;5032369;28;20376;-66
2023/09/27 10:21:24;;;;;;;12.63;8.38;;;;;;;17.84;100.00;101796.94;5043394;28;20045;-66
2023/09/27 10:24:12;;;;;;;13.13;8.88;;;;;;;17.83;100.00;101787.03;5064046;28;20449;-66
2023/09/27 10:27:00;;;;;;;14.63;9.02;;;;;;;17.86;100.00;101795.53;5076498;28;20440;-66
2023/09/27 10:29:58;;;;;;;13.18;8.75;;;;;;;17.90;100.00;101795.78;5090127;28;20048;-66
2023/09/27 10:32:46;;;;;;;14.52;8.82;;;;;;;17.93;100.00;101806.22;5095678;28;20062;-65
2023/09/27 10:35:35;;;;;;;12.98;8.85;;;;;;;17.96;100.00;101804.78;5061220;28;20122;-67
2023/09/27 10:38:23;;;;;;;17.70;10.45;;;;;;;18.01;100.00;101807.50;5023398;28;20153;-67
2023/09/27 10:41:42;;;;;;;12.93;8.75;;;;;;;18.09;100.00;101799.41;5072896;28;20496;-67
2023/09/27 10:44:36;;;;;;;15.85;9.70;;;;;;;18.14;100.00;101789.44;5039986;28;20048;-67
2023/09/27 10:47:26;;;;;;;13.73;9.05;;;;;;;18.18;100.00;101784.94;5055532;28;20056;-66
2023/09/27 10:50:16;;;;;;;12.73;8.35;;;;;;;18.19;100.00;101781.91;5055351;28;20163;-66
2023/09/27 10:53:06;;;;;;;13.65;8.55;;;;;;;18.22;100.00;101764.75;5044610;28;20040;-66
2023/09/27 10:55:54;;;;;;;13.63;8.05;;;;;;;18.23;100.00;101754.53;5074885;28;20389;-66
2023/09/27 10:58:45;;;;;;;13.55;8.95;;;;;;;18.23;100.00;101749.00;5066268;28;20071;-66
2023/09/27 11:01:35;;;;;;;15.60;8.93;;;;;;;18.24;100.00;101745.16;5073815;28;20112;-66
2023/09/27 11:04:24;;;;;;;13.05;8.95;;;;;;;18.27;100.00;101745.34;5061138;28;20561;-66
2023/09/27 11:07:13;;;;;;;13.13;8.93;;;;;;;18.36;100.00;101739.19;5047158;28;20554;-66
2023/09/27 11:10:02;;;;;;;14.50;8.65;;;;;;;18.38;100.00;101737.78;5070222;28;20059;-66
2023/09/27 11:12:50;;;;;;;12.57;8.43;;;;;;;18.41;100.00;101734.41;5073353;28;20071;-65
2023/09/27 11:15:39;;;;;;;13.60;8.45;;;;;;;18.45;100.00;101731.88;5086335;28;20189;-66
2023/09/27 11:18:27;;;;;;;13.10;7.90;;;;;;;18.46;100.00;101723.28;5093460;28;20044;-67
2023/09/27 11:21:16;;;;;;;14.15;8.02;;;;;;;18.47;100.00;101718.56;5040235;28;20037;-66
2023/09/27 11:24:04;;;;;;;15.63;9.02;;;;;;;18.48;100.00;101723.00;5059233;28;20051;-66
2023/09/27 11:26:53;;;;;;;12.50;8.48;;;;;;;18.48;100.00;101721.06;5069459;28;20044;-66
2023/09/27 11:29:41;;;;;;;16.20;9.07;;;;;;;18.50;100.00;101709.72;5059308;28;20072;-67
2023/09/27 11:32:29;;;;;;;12.70;8.63;;;;;;;18.53;100.00;101703.59;5073050;28;20054;-65
2023/09/27 11:35:20;;;;;;;14.50;9.13;;;;;;;18.55;100.00;101695.84;5059573;28;20052;-67
2023/09/27 11:38:12;;;;;;;14.77;9.18;;;;;;;18.58;100.00;101705.47;5051947;28;20032;-67
2023/09/27 11:41:14;;;;;;;13.25;9.55;;;;;;;18.62;100.00;101701.78;5079614;28;20049;-67
2023/09/27 11:44:16;;;;;;;14.02;10.38;;;;;;;18.69;100.00;101696.72;5041361;28;20102;-67
2023/09/27 11:47:08;;;;;;;15.27;10.60;;;;;;;18.77;100.00;101686.13;5057739;28;20044;-66
2023/09/27 11:49:57;;;;;;;20.92;10.48;;;;;;;18.80;100.00;101685.53;5072382;28;20048;-67
2023/09/27 11:52:46;;;;;;;22.23;11.02;;;;;;;18.82;100.00;101675.00;5058036;28;20135;-66
2023/09/27 11:55:35;;;;;;;22.85;12.38;;;;;;;18.87;100.00;101666.63;5072548;28;20424;-67
2023/09/27 11:58:23;;;;;;;17.92;10.70;;;;;;;18.91;100.00;101660.19;5071230;28;20056;-67
2023/09/27 12:01:11;;;;;;;18.88;11.00;;;;;;;19.00;100.00;101656.72;5072705;28;20084;-67
2023/09/27 12:04:00;;;;;;;19.90;11.48;;;;;;;19.04;100.00;101653.03;5036859;28;20049;-67
2023/09/27 12:06:51;;;;;;;15.18;10.63;;;;;;;19.06;100.00;101645.25;5086036;28;20071;-66
2023/09/27 12:09:39;;;;;;;15.95;9.85;;;;;;;19.08;100.00;101643.03;5072519;28;20124;-67
2023/09/27 12:12:27;;;;;;;14.38;10.05;;;;;;;19.10;100.00;101632.50;5071871;28;20122;-67
2023/09/27 12:15:15;;;;;;;14.70;10.00;;;;;;;19.12;100.00;101630.25;5073540;28;20071;-66
2023/09/27 12:18:04;;;;;;;15.75;9.32;;;;;;;19.16;100.00;101628.50;5058238;28;20044;-67
2023/09/27 12:20:52;;;;;;;27.27;10.77;;;;;;;19.21;100.00;101618.47;5071143;28;20485;-67
2023/09/27 12:23:40;;;;;;;16.17;8.63;;;;;;;19.27;100.00;101614.50;5058227;28;20044;-68
2023/09/27 12:26:29;;;;;;;26.83;9.32;;;;;;;19.32;100.00;101620.72;5059527;28;20037;-67
2023/09/27 12:29:17;;;;;;;16.55;7.43;;;;;;;19.39;100.00;101617.56;5071412;28;20044;-67
2023/09/27 12:32:05;;;;;;;14.48;8.02;;;;;;;19.46;100.00;101615.19;5056044;28;20044;-68
2023/09/27 12:34:53;;;;;;;13.50;7.80;;;;;;;19.50;99.79;101613.44;5072153;28;20101;-67
2023/09/27 12:37:41;;;;;;;11.73;7.38;;;;;;;19.52;98.42;101613.94;5073035;28;20052;-66
2023/09/27 12:40:32;;;;;;;13.60;7.10;;;;;;;19.55;98.83;101613.34;5073516;28;20040;-66
2023/09/27 12:43:20;;;;;;;11.73;7.57;;;;;;;19.57;98.77;101616.59;5036520;28;20389;-67
2023/09/27 12:46:09;;;;;;;15.20;7.30;;;;;;;19.55;99.15;101612.50;5051670;28;20045;-67
2023/09/27 12:48:57;;;;;;;13.80;8.40;;;;;;;19.58;99.07;101609.94;5069932;28;20530;-66